createdAt,value
2023-01-09T00:04:33.136Z,0.32
2023-01-09T00:09:38.387Z,0.30
2023-01-09T00:14:42.206Z,0.30
2023-01-09T00:19:46.011Z,0.20
2023-01-09T00:24:51.138Z,0.20
2023-01-09T00:29:54.782Z,0.30
2023-01-09T00:34:58.496Z,0.30
2023-01-09T00:40:03.498Z,0.20
2023-01-09T00:45:12.308Z,0.50
2023-01-09T00:50:21.926Z,0.43
2023-01-09T00:55:27.699Z,0.52
2023-01-09T01:00:31.463Z,0.50
2023-01-09T01:05:52.650Z,0.80
2023-01-09T01:10:57.652Z,0.68
2023-01-09T01:16:01.450Z,0.82
2023-01-09T01:21:08.744Z,0.73
2023-01-09T01:26:15.820Z,0.60
2023-01-09T01:36:23.324Z,0.52
2023-01-09T01:41:30.385Z,0.60
2023-01-09T01:51:42.578Z,1.13
2023-01-09T01:56:50.945Z,0.70
2023-01-09T02:01:57.773Z,0.93
2023-01-09T02:07:05.928Z,0.60
2023-01-09T02:12:23.723Z,0.73
2023-01-09T02:17:58.300Z,0.77
2023-01-09T02:23:26.609Z,0.70
2023-01-09T02:28:53.483Z,0.73
2023-01-09T02:39:19.622Z,0.50
2023-01-09T02:44:25.150Z,0.73
2023-01-09T02:49:30.537Z,0.55
2023-01-09T02:54:46.036Z,0.47
2023-01-09T03:00:03.635Z,0.57
2023-01-09T03:05:16.018Z,0.73
2023-01-09T03:10:23.898Z,0.88
2023-01-09T03:15:30.781Z,0.50
2023-01-09T03:20:36.578Z,0.80
2023-01-09T03:25:40.297Z,0.50
2023-01-09T03:30:44.031Z,0.50
2023-01-09T03:35:49.172Z,0.50
2023-01-09T03:40:52.969Z,0.43
2023-01-09T03:45:56.932Z,0.35
2023-01-09T03:51:02.060Z,0.57
2023-01-09T03:56:06.046Z,0.63
2023-01-09T04:01:12.839Z,0.55
2023-01-09T04:06:18.198Z,0.43
2023-01-09T04:11:22.587Z,0.38
2023-01-09T04:16:26.359Z,0.45
2023-01-09T04:21:31.461Z,0.30
2023-01-09T04:26:35.197Z,0.65
2023-01-09T04:31:39.000Z,0.38
2023-01-09T04:36:44.150Z,0.43
2023-01-09T04:41:50.827Z,0.40
2023-01-09T04:46:55.351Z,1.02
2023-01-09T04:52:00.495Z,0.77
2023-01-09T04:57:04.320Z,0.60
2023-01-09T05:02:08.140Z,0.60
2023-01-09T05:07:13.220Z,0.45
2023-01-09T05:12:16.896Z,0.50
2023-01-09T05:17:20.644Z,0.45
2023-01-09T05:22:25.892Z,0.60
2023-01-09T05:27:30.496Z,0.63
2023-01-09T05:32:34.287Z,0.70
2023-01-09T05:37:40.022Z,1.17
2023-01-09T05:42:44.565Z,0.45
2023-01-09T05:47:48.266Z,0.50
2023-01-09T05:52:53.601Z,0.55
2023-01-09T05:57:57.345Z,0.75
2023-01-09T06:03:01.408Z,0.68
2023-01-09T06:08:06.848Z,0.50
2023-01-09T06:13:10.668Z,0.57
2023-01-09T06:18:14.340Z,0.60
2023-01-09T06:23:19.379Z,0.70
2023-01-09T06:28:23.231Z,0.60
2023-01-09T06:33:26.901Z,0.95
2023-01-09T06:38:31.967Z,1.02
2023-01-09T06:43:35.978Z,0.90
2023-01-09T06:48:39.821Z,0.73
2023-01-09T06:53:45.124Z,0.85
2023-01-09T06:58:48.911Z,0.60
2023-01-09T07:03:52.698Z,0.57
2023-01-09T07:08:57.907Z,0.85
2023-01-09T07:14:01.659Z,0.75
2023-01-09T07:19:05.507Z,0.80
2023-01-09T07:24:10.632Z,1.02
2023-01-09T07:29:14.499Z,0.98
2023-01-09T07:34:18.473Z,1.15
2023-01-09T07:39:23.740Z,1.20
2023-01-09T07:44:27.622Z,1.00
2023-01-09T07:49:31.420Z,1.38
2023-01-09T07:54:36.759Z,1.10
2023-01-09T07:59:40.558Z,1.30
2023-01-09T08:04:44.228Z,1.70
2023-01-09T08:09:49.281Z,1.58
2023-01-09T08:14:52.987Z,1.60
2023-01-09T08:19:56.690Z,1.92
2023-01-09T08:25:01.946Z,1.35
2023-01-09T08:30:06.315Z,1.65
2023-01-09T08:35:11.330Z,1.90
2023-01-09T08:40:17.668Z,2.00
2023-01-09T08:45:38.880Z,2.40
2023-01-09T08:50:43.465Z,2.55
2023-01-09T08:55:48.532Z,2.65
2023-01-09T09:00:52.251Z,2.58
2023-01-09T09:05:56.065Z,2.65
2023-01-09T09:11:01.484Z,2.65
2023-01-09T09:16:05.884Z,3.20
2023-01-09T09:21:11.711Z,3.38
2023-01-09T09:26:17.005Z,3.25
2023-01-09T09:31:20.745Z,3.40
2023-01-09T09:36:24.648Z,3.80
2023-01-09T09:42:11.900Z,4.10
2023-01-09T09:47:28.920Z,3.95
2023-01-09T09:57:43.735Z,2.50
2023-01-09T10:02:52.524Z,2.80
2023-01-09T10:08:11.530Z,2.60
2023-01-09T10:13:40.938Z,2.53
2023-01-09T10:19:00.003Z,3.17
2023-01-09T10:24:31.904Z,3.38
2023-01-09T10:29:49.656Z,2.90
2023-01-09T10:35:04.028Z,2.83
2023-01-09T10:40:15.539Z,2.88
2023-01-09T10:45:26.645Z,2.40
2023-01-09T10:50:34.637Z,3.20
2023-01-09T10:55:51.043Z,2.67
2023-01-09T11:01:16.672Z,3.75
2023-01-09T11:06:34.103Z,3.30
2023-01-09T11:11:50.889Z,3.40
2023-01-09T11:17:05.815Z,3.95
2023-01-09T11:22:18.822Z,3.88
2023-01-09T11:27:24.841Z,3.60
2023-01-09T11:32:30.799Z,4.00
2023-01-09T11:37:35.545Z,3.13
2023-01-09T11:42:54.402Z,3.55
2023-01-09T11:47:59.883Z,4.05
2023-01-09T11:53:15.115Z,2.95
2023-01-09T11:58:21.908Z,2.80
2023-01-09T12:03:57.726Z,2.58
2023-01-09T12:09:04.050Z,2.13
2023-01-09T12:14:30.297Z,2.40
2023-01-09T12:19:50.829Z,2.23
2023-01-09T12:25:21.570Z,2.65
2023-01-09T12:30:44.262Z,3.40
2023-01-09T12:35:57.217Z,3.75
2023-01-09T12:41:30.694Z,3.42
2023-01-09T12:46:43.246Z,3.28
2023-01-09T12:51:54.202Z,3.67
2023-01-09T12:57:02.263Z,3.22
2023-01-09T13:02:14.451Z,2.35
2023-01-09T13:07:23.004Z,1.40
2023-01-09T13:12:28.789Z,2.00
2023-01-09T13:17:43.856Z,1.33
2023-01-09T13:22:51.057Z,1.88
2023-01-09T13:27:59.004Z,1.77
2023-01-09T13:33:15.448Z,2.10
2023-01-09T13:38:23.580Z,1.70
2023-01-09T13:43:27.393Z,2.20
2023-01-09T13:48:42.050Z,2.40
2023-01-09T13:53:50.386Z,2.03
2023-01-09T13:59:03.960Z,2.63
2023-01-09T14:04:45.820Z,2.42
2023-01-09T14:09:56.363Z,2.05
2023-01-09T14:15:03.149Z,1.70
2023-01-09T14:20:10.509Z,1.70
2023-01-09T14:25:24.037Z,1.42
2023-01-09T14:30:33.775Z,1.58
2023-01-09T14:35:46.658Z,1.27
2023-01-09T14:40:55.574Z,0.75
2023-01-09T14:46:10.680Z,0.68
2023-01-09T14:51:17.813Z,0.40
2023-01-09T14:56:29.711Z,0.70
2023-01-09T15:01:36.005Z,0.35
2023-01-09T15:06:44.818Z,0.67
2023-01-09T15:11:50.311Z,0.80
2023-01-09T15:16:54.214Z,0.70
2023-01-09T15:22:00.009Z,0.57
2023-01-09T15:27:12.534Z,0.73
2023-01-09T15:32:20.004Z,0.63
2023-01-09T15:37:30.777Z,0.60
2023-01-09T15:42:58.309Z,0.55
2023-01-09T15:48:24.118Z,0.55
2023-01-09T15:53:29.443Z,0.88
2023-01-09T15:58:36.977Z,0.82
2023-01-09T16:03:40.881Z,0.98
2023-01-09T16:08:53.745Z,0.75
2023-01-09T16:14:11.069Z,0.95
2023-01-09T16:19:32.496Z,0.90
2023-01-09T16:24:41.931Z,1.10
2023-01-09T16:29:49.855Z,1.92
2023-01-09T16:34:55.310Z,1.63
2023-01-09T16:40:25.605Z,2.10
2023-01-09T16:45:34.410Z,1.90
2023-01-09T16:50:38.253Z,1.63
2023-01-09T16:55:42.076Z,2.45
2023-01-09T17:00:47.926Z,1.73
2023-01-09T17:05:54.039Z,1.92
2023-01-09T17:10:58.708Z,1.52
2023-01-09T17:16:05.538Z,1.35
2023-01-09T17:21:17.242Z,1.45
2023-01-09T17:26:40.044Z,1.30
2023-01-09T17:31:45.166Z,0.88
2023-01-09T17:36:49.077Z,0.82
2023-01-09T17:41:53.685Z,0.68
2023-01-09T17:46:59.020Z,1.17
2023-01-09T17:52:02.862Z,1.70
2023-01-09T17:57:08.294Z,1.40
2023-01-09T18:02:19.147Z,1.80
2023-01-09T18:07:23.169Z,1.70
2023-01-09T18:12:27.155Z,1.70
2023-01-09T18:17:32.495Z,1.65
2023-01-09T18:22:36.352Z,1.10
2023-01-09T18:27:40.170Z,1.58
2023-01-09T18:32:45.299Z,1.13
2023-01-09T18:37:49.769Z,1.05
2023-01-09T18:42:54.343Z,1.23
2023-01-09T18:47:59.685Z,1.02
2023-01-09T18:53:03.706Z,0.82
2023-01-09T18:58:07.821Z,1.58
2023-01-09T19:03:15.017Z,1.58
2023-01-09T19:13:25.953Z,1.27
2023-01-09T19:18:35.183Z,1.50
2023-01-09T19:23:39.009Z,1.83
2023-01-09T19:28:45.024Z,1.52
2023-01-09T19:33:50.175Z,1.90
2023-01-09T19:38:58.049Z,1.73
2023-01-09T19:44:02.154Z,2.28
2023-01-09T19:49:23.325Z,2.60
2023-01-09T19:54:40.417Z,3.15
2023-01-09T19:59:57.945Z,3.75
2023-01-09T20:05:25.628Z,3.00
2023-01-09T20:10:34.046Z,2.67
2023-01-09T20:15:47.211Z,3.22
2023-01-09T20:20:53.537Z,3.10
2023-01-09T20:25:59.821Z,3.60
2023-01-09T20:31:05.936Z,2.45
2023-01-09T20:36:11.794Z,2.95
2023-01-09T20:41:22.790Z,1.73
2023-01-09T20:46:28.302Z,1.55
2023-01-09T20:51:33.910Z,2.78
2023-01-09T20:56:37.768Z,1.52
2023-01-09T21:01:41.780Z,1.50
2023-01-09T21:06:49.657Z,1.65
2023-01-09T21:11:53.802Z,1.60
2023-01-09T21:16:57.564Z,1.77
2023-01-09T21:22:02.718Z,1.60
2023-01-09T21:27:06.516Z,1.33
2023-01-09T21:32:10.234Z,1.50
2023-01-09T21:37:16.780Z,0.95
2023-01-09T21:42:37.629Z,1.00
2023-01-09T21:47:41.411Z,1.25
2023-01-09T21:52:46.603Z,1.60
2023-01-09T21:57:50.279Z,1.60
2023-01-09T22:02:53.941Z,1.98
2023-01-09T22:07:59.030Z,1.73
2023-01-09T22:13:17.460Z,2.00
2023-01-09T22:18:21.481Z,1.80
2023-01-09T22:23:26.641Z,2.13
2023-01-09T22:28:30.350Z,2.60
2023-01-09T22:33:34.229Z,2.22
2023-01-09T22:38:39.856Z,1.85
2023-01-09T22:43:43.581Z,1.75
2023-01-09T22:48:47.839Z,1.92
2023-01-09T22:53:53.040Z,1.40
2023-01-09T22:58:59.699Z,1.90
2023-01-09T23:04:04.989Z,1.52
2023-01-09T23:09:10.206Z,1.73
2023-01-09T23:14:14.561Z,1.52
2023-01-09T23:19:18.448Z,1.33
2023-01-09T23:24:23.704Z,1.50
2023-01-09T23:29:27.845Z,1.50
2023-01-09T23:34:31.562Z,1.42
2023-01-09T23:39:36.813Z,1.70
2023-01-09T23:44:40.514Z,1.25
2023-01-09T23:49:44.727Z,0.60
2023-01-09T23:54:49.913Z,0.95
2023-01-09T23:59:53.698Z,1.08
